Terminal Aerodrome Forecast
Issued by NWS Jackson, MS

Home | Current Version | Previous Version | Text Only | Print | Product List | Glossary On
Versions: 1 2 3 4 5 6 7 8 9 10 11 12 13 14 15
000
FTUS44 KMEG 211100
TAFTUP
TAF
KTUP 211128Z 2112/2212 22006KT P6SM SCT070 BKN150
     FM211600 20008KT P6SM BKN070 OVC100
     FM212200 24006KT P6SM VCTS BKN050CB OVC100
      TEMPO 2122/2201 -SHRA
     FM220200 23006KT P6SM VCSH BKN050 OVC070
     FM220800 25004KT 6SM -SHRA SCT012 OVC040=

USA.gov is the U.S. government's official web portal to all federal, state and local government web resources and services.